sensor_id;sensor_type;location;lat;lon;timestamp;pressure;altitude;pressure_sealevel;temperature;humidity
22753;BME280;11543;43.144;24.684;2023-05-22T00:00:14;98677.59;;;17.12;74.81
22753;BME280;11543;43.144;24.684;2023-05-22T00:02:41;98689.72;;;17.16;74.74
22753;BME280;11543;43.144;24.684;2023-05-22T00:05:11;98695.81;;;17.25;74.99
22753;BME280;11543;43.144;24.684;2023-05-22T00:07:37;98695.47;;;17.35;74.61
22753;BME280;11543;43.144;24.684;2023-05-22T00:10:04;98694.03;;;17.39;74.38
22753;BME280;11543;43.144;24.684;2023-05-22T00:12:30;98686.53;;;17.41;74.02
22753;BME280;11543;43.144;24.684;2023-05-22T00:14:56;98692.19;;;17.46;74.09
22753;BME280;11543;43.144;24.684;2023-05-22T00:17:22;98698.25;;;17.55;73.73
22753;BME280;11543;43.144;24.684;2023-05-22T00:19:47;98688.25;;;17.55;73.65
22753;BME280;11543;43.144;24.684;2023-05-22T00:22:13;98706.69;;;17.66;73.56
22753;BME280;11543;43.144;24.684;2023-05-22T00:24:38;98702.94;;;17.67;73.45
22753;BME280;11543;43.144;24.684;2023-05-22T00:27:04;98695.81;;;17.66;73.31
22753;BME280;11543;43.144;24.684;2023-05-22T00:29:30;98686.78;;;17.59;73.34
22753;BME280;11543;43.144;24.684;2023-05-22T00:31:56;98689.91;;;17.56;73.41
22753;BME280;11543;43.144;24.684;2023-05-22T00:34:21;98694.53;;;17.62;72.96
22753;BME280;11543;43.144;24.684;2023-05-22T00:36:46;98674.47;;;17.50;73.17
22753;BME280;11543;43.144;24.684;2023-05-22T00:39:12;98664.03;;;17.54;72.91
22753;BME280;11543;43.144;24.684;2023-05-22T00:41:38;98696.47;;;17.68;73.06
22753;BME280;11543;43.144;24.684;2023-05-22T00:44:03;98675.28;;;17.50;72.82
22753;BME280;11543;43.144;24.684;2023-05-22T00:46:29;98669.00;;;17.37;73.08
22753;BME280;11543;43.144;24.684;2023-05-22T00:48:55;98674.00;;;17.40;73.10
22753;BME280;11543;43.144;24.684;2023-05-22T00:51:21;98690.28;;;17.40;73.33
22753;BME280;11543;43.144;24.684;2023-05-22T00:53:47;98672.66;;;17.23;73.40
22753;BME280;11543;43.144;24.684;2023-05-22T00:56:14;98676.41;;;17.22;73.63
22753;BME280;11543;43.144;24.684;2023-05-22T00:58:40;98673.50;;;17.23;73.63
22753;BME280;11543;43.144;24.684;2023-05-22T01:01:06;98676.88;;;17.32;73.65
22753;BME280;11543;43.144;24.684;2023-05-22T01:03:40;98683.97;;;17.33;73.60
22753;BME280;11543;43.144;24.684;2023-05-22T01:06:12;98673.09;;;17.33;73.29
22753;BME280;11543;43.144;24.684;2023-05-22T01:08:39;98679.44;;;17.40;73.29
22753;BME280;11543;43.144;24.684;2023-05-22T01:11:41;98673.59;;;17.43;72.91
22753;BME280;11543;43.144;24.684;2023-05-22T01:14:24;98668.53;;;17.33;72.83
22753;BME280;11543;43.144;24.684;2023-05-22T01:17:12;98679.84;;;17.37;72.73
22753;BME280;11543;43.144;24.684;2023-05-22T01:20:05;98674.41;;;17.37;72.50
22753;BME280;11543;43.144;24.684;2023-05-22T01:23:14;98678.94;;;17.30;72.45
22753;BME280;11543;43.144;24.684;2023-05-22T01:31:26;98661.13;;;17.07;72.38
22753;BME280;11543;43.144;24.684;2023-05-22T01:33:55;98659.44;;;17.06;72.31
22753;BME280;11543;43.144;24.684;2023-05-22T01:36:24;98659.19;;;17.01;72.34
22753;BME280;11543;43.144;24.684;2023-05-22T01:38:53;98651.25;;;16.93;72.04
22753;BME280;11543;43.144;24.684;2023-05-22T01:41:19;98661.16;;;16.79;72.67
22753;BME280;11543;43.144;24.684;2023-05-22T01:43:46;98662.13;;;16.65;73.00
22753;BME280;11543;43.144;24.684;2023-05-22T01:46:12;98652.41;;;16.49;73.69
22753;BME280;11543;43.144;24.684;2023-05-22T01:48:37;98640.03;;;16.40;73.82
22753;BME280;11543;43.144;24.684;2023-05-22T01:54:37;98667.09;;;16.40;74.61
22753;BME280;11543;43.144;24.684;2023-05-22T02:02:22;98651.84;;;16.33;74.15
22753;BME280;11543;43.144;24.684;2023-05-22T02:04:53;98651.97;;;16.24;74.20
22753;BME280;11543;43.144;24.684;2023-05-22T02:07:21;98669.94;;;16.32;74.43
22753;BME280;11543;43.144;24.684;2023-05-22T02:09:49;98660.78;;;16.33;74.34
22753;BME280;11543;43.144;24.684;2023-05-22T02:12:16;98657.88;;;16.35;73.84
22753;BME280;11543;43.144;24.684;2023-05-22T02:14:42;98665.41;;;16.39;73.75
22753;BME280;11543;43.144;24.684;2023-05-22T02:17:07;98660.78;;;16.33;73.70
22753;BME280;11543;43.144;24.684;2023-05-22T02:19:34;98642.38;;;16.22;73.45
22753;BME280;11543;43.144;24.684;2023-05-22T02:22:00;98646.38;;;16.26;73.38
22753;BME280;11543;43.144;24.684;2023-05-22T02:24:26;98651.13;;;16.24;73.26
22753;BME280;11543;43.144;24.684;2023-05-22T02:26:51;98657.84;;;16.28;72.97
22753;BME280;11543;43.144;24.684;2023-05-22T02:29:17;98649.47;;;16.23;72.93
22753;BME280;11543;43.144;24.684;2023-05-22T02:31:42;98650.44;;;16.15;73.18
22753;BME280;11543;43.144;24.684;2023-05-22T02:34:08;98653.47;;;16.06;73.72
22753;BME280;11543;43.144;24.684;2023-05-22T02:36:33;98660.84;;;15.90;73.83
22753;BME280;11543;43.144;24.684;2023-05-22T02:38:59;98665.84;;;15.72;74.11
22753;BME280;11543;43.144;24.684;2023-05-22T02:41:24;98664.66;;;15.45;74.90
22753;BME280;11543;43.144;24.684;2023-05-22T02:43:50;98656.34;;;15.25;75.71
22753;BME280;11543;43.144;24.684;2023-05-22T02:46:15;98647.56;;;15.23;76.46
22753;BME280;11543;43.144;24.684;2023-05-22T02:48:41;98648.50;;;15.30;76.48
22753;BME280;11543;43.144;24.684;2023-05-22T02:51:06;98647.34;;;15.40;76.12
22753;BME280;11543;43.144;24.684;2023-05-22T02:53:32;98636.38;;;15.26;76.17
22753;BME280;11543;43.144;24.684;2023-05-22T02:56:08;98652.38;;;15.43;75.98
22753;BME280;11543;43.144;24.684;2023-05-22T02:58:37;98646.44;;;15.33;75.41
22753;BME280;11543;43.144;24.684;2023-05-22T03:01:03;98635.19;;;15.14;75.71
22753;BME280;11543;43.144;24.684;2023-05-22T03:03:31;98652.94;;;15.02;76.08
22753;BME280;11543;43.144;24.684;2023-05-22T03:05:58;98655.16;;;14.98;77.08
22753;BME280;11543;43.144;24.684;2023-05-22T03:08:26;98633.19;;;14.87;77.31
22753;BME280;11543;43.144;24.684;2023-05-22T03:10:52;98653.22;;;14.92;77.09
22753;BME280;11543;43.144;24.684;2023-05-22T03:13:18;98627.50;;;14.82;77.56
22753;BME280;11543;43.144;24.684;2023-05-22T03:15:43;98629.56;;;14.80;77.93
22753;BME280;11543;43.144;24.684;2023-05-22T03:18:09;98627.97;;;14.85;78.01
22753;BME280;11543;43.144;24.684;2023-05-22T03:20:35;98644.72;;;14.95;77.95
22753;BME280;11543;43.144;24.684;2023-05-22T03:23:00;98647.53;;;15.02;77.37
22753;BME280;11543;43.144;24.684;2023-05-22T03:25:26;98642.38;;;15.07;77.36
22753;BME280;11543;43.144;24.684;2023-05-22T03:27:52;98642.28;;;15.15;77.22
22753;BME280;11543;43.144;24.684;2023-05-22T03:30:17;98639.97;;;15.12;76.89
22753;BME280;11543;43.144;24.684;2023-05-22T03:32:43;98657.47;;;15.16;77.22
22753;BME280;11543;43.144;24.684;2023-05-22T03:35:08;98650.31;;;15.09;77.42
22753;BME280;11543;43.144;24.684;2023-05-22T03:37:34;98631.88;;;14.97;77.38
22753;BME280;11543;43.144;24.684;2023-05-22T03:39:59;98649.09;;;15.11;77.52
22753;BME280;11543;43.144;24.684;2023-05-22T03:42:25;98639.31;;;15.10;77.27
22753;BME280;11543;43.144;24.684;2023-05-22T03:44:52;98662.13;;;15.22;77.37
22753;BME280;11543;43.144;24.684;2023-05-22T03:47:17;98650.88;;;15.04;77.26
22753;BME280;11543;43.144;24.684;2023-05-22T03:49:43;98660.09;;;14.95;77.72
22753;BME280;11543;43.144;24.684;2023-05-22T03:52:09;98637.00;;;14.78;78.27
22753;BME280;11543;43.144;24.684;2023-05-22T03:54:35;98661.22;;;14.86;79.10
22753;BME280;11543;43.144;24.684;2023-05-22T03:57:01;98680.97;;;15.01;79.07
22753;BME280;11543;43.144;24.684;2023-05-22T03:59:27;98664.84;;;14.93;78.93
22753;BME280;11543;43.144;24.684;2023-05-22T04:01:52;98653.41;;;14.91;79.21
22753;BME280;11543;43.144;24.684;2023-05-22T04:04:17;98651.34;;;14.93;79.32
22753;BME280;11543;43.144;24.684;2023-05-22T04:06:43;98661.50;;;15.06;79.40
22753;BME280;11543;43.144;24.684;2023-05-22T04:09:09;98670.16;;;15.01;79.61
22753;BME280;11543;43.144;24.684;2023-05-22T04:11:38;98678.81;;;15.11;79.70
22753;BME280;11543;43.144;24.684;2023-05-22T04:14:04;98679.47;;;15.13;80.10
22753;BME280;11543;43.144;24.684;2023-05-22T04:16:31;98680.13;;;15.15;80.36
22753;BME280;11543;43.144;24.684;2023-05-22T04:18:57;98661.13;;;15.09;80.51
22753;BME280;11543;43.144;24.684;2023-05-22T04:21:23;98662.88;;;15.16;80.54
22753;BME280;11543;43.144;24.684;2023-05-22T04:23:49;98669.00;;;15.25;80.22
22753;BME280;11543;43.144;24.684;2023-05-22T04:26:15;98655.31;;;15.26;80.22
22753;BME280;11543;43.144;24.684;2023-05-22T04:28:42;98656.41;;;15.32;79.98
22753;BME280;11543;43.144;24.684;2023-05-22T04:31:12;98674.72;;;15.51;80.03
22753;BME280;11543;43.144;24.684;2023-05-22T04:33:38;98672.84;;;15.52;80.01
22753;BME280;11543;43.144;24.684;2023-05-22T04:36:05;98672.78;;;15.60;80.19
22753;BME280;11543;43.144;24.684;2023-05-22T04:38:34;98677.63;;;15.65;79.97
22753;BME280;11543;43.144;24.684;2023-05-22T04:41:01;98660.56;;;15.64;80.09
22753;BME280;11543;43.144;24.684;2023-05-22T04:43:27;98676.56;;;15.80;79.90
22753;BME280;11543;43.144;24.684;2023-05-22T04:45:54;98668.69;;;15.85;80.03
22753;BME280;11543;43.144;24.684;2023-05-22T04:48:21;98684.28;;;16.05;79.79
22753;BME280;11543;43.144;24.684;2023-05-22T04:50:50;98673.53;;;16.11;79.69
22753;BME280;11543;43.144;24.684;2023-05-22T04:53:16;98672.34;;;16.20;79.80
22753;BME280;11543;43.144;24.684;2023-05-22T04:55:42;98662.84;;;16.31;79.62
22753;BME280;11543;43.144;24.684;2023-05-22T04:58:08;98680.03;;;16.45;79.50
22753;BME280;11543;43.144;24.684;2023-05-22T05:00:34;98667.16;;;16.47;79.52
22753;BME280;11543;43.144;24.684;2023-05-22T05:03:00;98666.81;;;16.56;79.98
22753;BME280;11543;43.144;24.684;2023-05-22T05:05:25;98672.09;;;16.65;79.80
22753;BME280;11543;43.144;24.684;2023-05-22T05:07:51;98686.16;;;16.75;80.05
22753;BME280;11543;43.144;24.684;2023-05-22T05:10:27;98659.84;;;16.69;80.01
22753;BME280;11543;43.144;24.684;2023-05-22T05:12:54;98670.38;;;16.85;79.89
22753;BME280;11543;43.144;24.684;2023-05-22T05:15:20;98658.09;;;16.89;79.70
22753;BME280;11543;43.144;24.684;2023-05-22T05:17:50;98678.41;;;17.06;79.69
22753;BME280;11543;43.144;24.684;2023-05-22T05:20:15;98662.16;;;17.06;79.86
22753;BME280;11543;43.144;24.684;2023-05-22T05:22:41;98660.94;;;17.15;79.34
22753;BME280;11543;43.144;24.684;2023-05-22T05:25:10;98666.59;;;17.20;78.85
22753;BME280;11543;43.144;24.684;2023-05-22T05:27:36;98682.78;;;17.42;78.41
22753;BME280;11543;43.144;24.684;2023-05-22T05:30:01;98678.81;;;17.44;77.81
22753;BME280;11543;43.144;24.684;2023-05-22T05:32:27;98684.72;;;17.61;77.26
22753;BME280;11543;43.144;24.684;2023-05-22T05:34:52;98676.59;;;17.61;76.74
22753;BME280;11543;43.144;24.684;2023-05-22T05:37:18;98654.25;;;17.59;76.58
22753;BME280;11543;43.144;24.684;2023-05-22T05:39:43;98684.59;;;17.82;76.16
22753;BME280;11543;43.144;24.684;2023-05-22T05:42:12;98684.63;;;17.89;75.80
22753;BME280;11543;43.144;24.684;2023-05-22T05:44:37;98667.50;;;17.89;75.73
22753;BME280;11543;43.144;24.684;2023-05-22T05:47:03;98677.94;;;18.05;75.25
22753;BME280;11543;43.144;24.684;2023-05-22T05:49:29;98677.75;;;18.13;75.27
22753;BME280;11543;43.144;24.684;2023-05-22T05:51:55;98648.50;;;18.08;75.03
22753;BME280;11543;43.144;24.684;2023-05-22T05:54:21;98667.75;;;18.33;74.88
22753;BME280;11543;43.144;24.684;2023-05-22T05:56:47;98654.19;;;18.33;74.26
22753;BME280;11543;43.144;24.684;2023-05-22T05:59:12;98652.50;;;18.45;74.15
22753;BME280;11543;43.144;24.684;2023-05-22T06:01:42;98685.13;;;18.72;74.02
22753;BME280;11543;43.144;24.684;2023-05-22T06:04:08;98683.00;;;18.81;73.71
22753;BME280;11543;43.144;24.684;2023-05-22T06:06:34;98685.47;;;18.95;72.99
22753;BME280;11543;43.144;24.684;2023-05-22T06:09:04;98682.53;;;19.03;72.63
22753;BME280;11543;43.144;24.684;2023-05-22T06:11:31;98687.13;;;19.16;72.27
22753;BME280;11543;43.144;24.684;2023-05-22T06:13:56;98679.56;;;19.25;71.78
22753;BME280;11543;43.144;24.684;2023-05-22T06:16:24;98693.31;;;19.43;71.04
22753;BME280;11543;43.144;24.684;2023-05-22T06:18:49;98687.63;;;19.51;70.53
22753;BME280;11543;43.144;24.684;2023-05-22T06:21:17;98691.38;;;19.63;70.12
22753;BME280;11543;43.144;24.684;2023-05-22T06:23:45;98696.13;;;19.75;69.88
22753;BME280;11543;43.144;24.684;2023-05-22T06:26:12;98687.69;;;19.83;69.70
22753;BME280;11543;43.144;24.684;2023-05-22T06:28:41;98696.38;;;20.04;68.66
22753;BME280;11543;43.144;24.684;2023-05-22T06:31:06;98682.56;;;20.06;68.85
22753;BME280;11543;43.144;24.684;2023-05-22T06:33:37;98690.34;;;20.27;68.52
22753;BME280;11543;43.144;24.684;2023-05-22T06:36:05;98687.78;;;20.39;68.81
22753;BME280;11543;43.144;24.684;2023-05-22T06:38:31;98695.63;;;20.54;68.16
22753;BME280;11543;43.144;24.684;2023-05-22T06:40:57;98685.97;;;20.76;66.63
22753;BME280;11543;43.144;24.684;2023-05-22T06:43:22;98678.53;;;20.90;65.08
22753;BME280;11543;43.144;24.684;2023-05-22T06:45:48;98692.41;;;21.07;64.95
22753;BME280;11543;43.144;24.684;2023-05-22T06:48:14;98682.88;;;21.16;64.76
22753;BME280;11543;43.144;24.684;2023-05-22T06:50:39;98686.53;;;21.28;64.24
22753;BME280;11543;43.144;24.684;2023-05-22T06:53:05;98668.03;;;21.30;63.18
22753;BME280;11543;43.144;24.684;2023-05-22T06:55:31;98682.75;;;21.47;63.24
22753;BME280;11543;43.144;24.684;2023-05-22T06:57:57;98668.72;;;21.44;63.63
22753;BME280;11543;43.144;24.684;2023-05-22T07:00:22;98679.84;;;21.60;63.64
22753;BME280;11543;43.144;24.684;2023-05-22T07:02:48;98683.94;;;21.70;62.97
22753;BME280;11543;43.144;24.684;2023-05-22T07:05:14;98665.44;;;21.72;63.17
22753;BME280;11543;43.144;24.684;2023-05-22T07:07:39;98678.56;;;21.93;61.97
22753;BME280;11543;43.144;24.684;2023-05-22T07:10:05;98676.75;;;22.05;61.05
22753;BME280;11543;43.144;24.684;2023-05-22T07:12:31;98677.13;;;22.20;61.56
22753;BME280;11543;43.144;24.684;2023-05-22T07:14:57;98663.59;;;22.25;59.18
22753;BME280;11543;43.144;24.684;2023-05-22T07:17:24;98670.66;;;22.45;57.34
22753;BME280;11543;43.144;24.684;2023-05-22T07:19:50;98658.03;;;22.44;57.84
22753;BME280;11543;43.144;24.684;2023-05-22T07:22:15;98650.81;;;22.49;56.93
22753;BME280;11543;43.144;24.684;2023-05-22T07:24:42;98666.38;;;22.49;57.71
22753;BME280;11543;43.144;24.684;2023-05-22T07:27:07;98673.31;;;22.63;57.87
22753;BME280;11543;43.144;24.684;2023-05-22T07:29:33;98668.56;;;22.70;56.99
22753;BME280;11543;43.144;24.684;2023-05-22T07:31:59;98677.63;;;22.82;56.11
22753;BME280;11543;43.144;24.684;2023-05-22T07:34:24;98677.16;;;22.85;55.86
22753;BME280;11543;43.144;24.684;2023-05-22T07:36:56;98676.66;;;22.88;55.66
22753;BME280;11543;43.144;24.684;2023-05-22T07:39:22;98656.44;;;22.90;55.07
22753;BME280;11543;43.144;24.684;2023-05-22T07:41:47;98668.09;;;22.97;55.62
22753;BME280;11543;43.144;24.684;2023-05-22T07:44:16;98655.72;;;23.06;54.67
22753;BME280;11543;43.144;24.684;2023-05-22T07:46:42;98678.41;;;23.30;53.61
22753;BME280;11543;43.144;24.684;2023-05-22T07:49:07;98672.31;;;23.39;53.28
22753;BME280;11543;43.144;24.684;2023-05-22T07:51:33;98672.31;;;23.39;53.62
22753;BME280;11543;43.144;24.684;2023-05-22T07:53:59;98664.22;;;23.44;53.12
22753;BME280;11543;43.144;24.684;2023-05-22T07:56:24;98665.16;;;23.38;53.72
22753;BME280;11543;43.144;24.684;2023-05-22T07:58:51;98669.22;;;23.47;53.83
22753;BME280;11543;43.144;24.684;2023-05-22T08:01:17;98655.28;;;23.49;53.99
22753;BME280;11543;43.144;24.684;2023-05-22T08:03:42;98672.28;;;23.63;54.26
22753;BME280;11543;43.144;24.684;2023-05-22T08:06:08;98661.44;;;23.68;54.47
22753;BME280;11543;43.144;24.684;2023-05-22T08:08:34;98656.75;;;23.80;54.11
22753;BME280;11543;43.144;24.684;2023-05-22T08:10:59;98661.34;;;23.91;53.49
22753;BME280;11543;43.144;24.684;2023-05-22T08:13:25;98667.59;;;24.03;53.82
22753;BME280;11543;43.144;24.684;2023-05-22T08:15:51;98680.31;;;24.38;53.37
22753;BME280;11543;43.144;24.684;2023-05-22T08:18:16;98678.91;;;24.52;53.45
22753;BME280;11543;43.144;24.684;2023-05-22T08:20:42;98680.81;;;24.68;52.05
22753;BME280;11543;43.144;24.684;2023-05-22T08:23:07;98661.19;;;24.76;51.01
22753;BME280;11543;43.144;24.684;2023-05-22T08:25:33;98678.56;;;24.99;50.54
22753;BME280;11543;43.144;24.684;2023-05-22T08:27:58;98668.81;;;25.08;50.33
22753;BME280;11543;43.144;24.684;2023-05-22T08:30:24;98670.06;;;25.17;50.13
22753;BME280;11543;43.144;24.684;2023-05-22T08:32:49;98670.31;;;25.16;49.98
22753;BME280;11543;43.144;24.684;2023-05-22T08:35:15;98670.66;;;25.19;50.02
22753;BME280;11543;43.144;24.684;2023-05-22T08:37:40;98662.66;;;25.18;50.19
22753;BME280;11543;43.144;24.684;2023-05-22T08:40:09;98666.06;;;25.47;49.52
22753;BME280;11543;43.144;24.684;2023-05-22T08:42:35;98668.97;;;25.62;48.78
22753;BME280;11543;43.144;24.684;2023-05-22T08:45:01;98666.97;;;25.74;48.34
22753;BME280;11543;43.144;24.684;2023-05-22T08:47:27;98661.16;;;25.97;47.90
22753;BME280;11543;43.144;24.684;2023-05-22T08:49:56;98650.81;;;26.05;47.33
22753;BME280;11543;43.144;24.684;2023-05-22T08:52:31;98656.47;;;26.20;48.50
22753;BME280;11543;43.144;24.684;2023-05-22T08:54:58;98657.75;;;26.39;47.65
22753;BME280;11543;43.144;24.684;2023-05-22T08:57:25;98644.06;;;26.44;48.25
22753;BME280;11543;43.144;24.684;2023-05-22T08:59:51;98653.47;;;26.53;47.71
22753;BME280;11543;43.144;24.684;2023-05-22T09:02:17;98654.59;;;26.57;47.39
22753;BME280;11543;43.144;24.684;2023-05-22T09:04:43;98656.34;;;26.69;45.85
22753;BME280;11543;43.144;24.684;2023-05-22T09:07:09;98654.16;;;26.71;46.38
22753;BME280;11543;43.144;24.684;2023-05-22T09:09:37;98646.53;;;26.83;45.72
22753;BME280;11543;43.144;24.684;2023-05-22T09:12:06;98652.19;;;26.98;45.61
22753;BME280;11543;43.144;24.684;2023-05-22T09:17:05;98650.31;;;27.04;45.85
22753;BME280;11543;43.144;24.684;2023-05-22T09:19:31;98653.94;;;27.14;45.43
22753;BME280;11543;43.144;24.684;2023-05-22T09:22:06;98653.09;;;27.14;45.57
22753;BME280;11543;43.144;24.684;2023-05-22T09:24:41;98645.50;;;26.89;45.79
22753;BME280;11543;43.144;24.684;2023-05-22T09:27:08;98643.09;;;26.98;45.40
22753;BME280;11543;43.144;24.684;2023-05-22T09:29:51;98643.41;;;27.01;45.15
22753;BME280;11543;43.144;24.684;2023-05-22T09:32:17;98651.88;;;26.94;46.67
22753;BME280;11543;43.144;24.684;2023-05-22T09:34:43;98636.66;;;26.87;46.18
22753;BME280;11543;43.144;24.684;2023-05-22T09:37:12;98627.72;;;27.02;45.87
22753;BME280;11543;43.144;24.684;2023-05-22T09:39:39;98622.06;;;27.28;45.59
22753;BME280;11543;43.144;24.684;2023-05-22T09:42:07;98633.69;;;27.46;45.23
22753;BME280;11543;43.144;24.684;2023-05-22T09:44:34;98615.00;;;27.58;44.82
22753;BME280;11543;43.144;24.684;2023-05-22T09:47:00;98627.19;;;27.72;43.80
22753;BME280;11543;43.144;24.684;2023-05-22T09:49:25;98632.75;;;27.82;44.43
22753;BME280;11543;43.144;24.684;2023-05-22T09:51:53;98642.72;;;27.94;44.30
22753;BME280;11543;43.144;24.684;2023-05-22T09:54:21;98639.94;;;27.94;44.07
22753;BME280;11543;43.144;24.684;2023-05-22T09:56:52;98630.56;;;27.89;44.78
22753;BME280;11543;43.144;24.684;2023-05-22T09:59:20;98644.38;;;28.10;44.23
22753;BME280;11543;43.144;24.684;2023-05-22T10:01:50;98641.41;;;28.32;44.18
22753;BME280;11543;43.144;24.684;2023-05-22T10:04:18;98635.06;;;28.41;43.29
22753;BME280;11543;43.144;24.684;2023-05-22T10:06:49;98627.06;;;28.50;42.56
22753;BME280;11543;43.144;24.684;2023-05-22T10:09:17;98621.81;;;28.33;42.01
22753;BME280;11543;43.144;24.684;2023-05-22T10:11:44;98617.94;;;28.44;41.73
22753;BME280;11543;43.144;24.684;2023-05-22T10:14:11;98620.44;;;28.46;41.11
22753;BME280;11543;43.144;24.684;2023-05-22T10:16:37;98628.44;;;28.47;41.77
22753;BME280;11543;43.144;24.684;2023-05-22T10:19:03;98624.56;;;28.33;42.01
22753;BME280;11543;43.144;24.684;2023-05-22T10:21:30;98619.28;;;28.11;43.65
22753;BME280;11543;43.144;24.684;2023-05-22T10:23:58;98623.75;;;28.28;43.80
22753;BME280;11543;43.144;24.684;2023-05-22T10:26:26;98603.88;;;28.31;43.47
22753;BME280;11543;43.144;24.684;2023-05-22T10:29:04;98611.03;;;28.57;43.21
22753;BME280;11543;43.144;24.684;2023-05-22T10:31:46;98593.09;;;28.60;42.68
22753;BME280;11543;43.144;24.684;2023-05-22T10:34:33;98603.03;;;28.76;43.12
22753;BME280;11543;43.144;24.684;2023-05-22T10:37:48;98614.38;;;28.69;43.15
22753;BME280;11543;43.144;24.684;2023-05-22T10:40:28;98614.06;;;28.55;43.20
22753;BME280;11543;43.144;24.684;2023-05-22T10:42:58;98610.78;;;28.48;43.88
22753;BME280;11543;43.144;24.684;2023-05-22T10:45:25;98604.72;;;28.36;43.91
22753;BME280;11543;43.144;24.684;2023-05-22T10:48:05;98610.50;;;28.40;43.49
22753;BME280;11543;43.144;24.684;2023-05-22T10:50:31;98588.16;;;28.26;43.55
22753;BME280;11543;43.144;24.684;2023-05-22T10:53:19;98597.25;;;28.42;43.79
22753;BME280;11543;43.144;24.684;2023-05-22T10:55:50;98584.84;;;28.44;43.68
22753;BME280;11543;43.144;24.684;2023-05-22T10:58:17;98590.91;;;28.51;43.32
22753;BME280;11543;43.144;24.684;2023-05-22T11:00:43;98575.44;;;28.50;43.24
22753;BME280;11543;43.144;24.684;2023-05-22T11:03:09;98567.16;;;28.50;43.08
22753;BME280;11543;43.144;24.684;2023-05-22T11:05:36;98581.22;;;28.54;43.08
22753;BME280;11543;43.144;24.684;2023-05-22T11:08:34;98567.97;;;28.56;43.01
22753;BME280;11543;43.144;24.684;2023-05-22T11:11:09;98559.97;;;28.60;42.71
22753;BME280;11543;43.144;24.684;2023-05-22T11:13:37;98566.06;;;28.67;42.71
22753;BME280;11543;43.144;24.684;2023-05-22T11:16:07;98561.06;;;28.84;42.09
22753;BME280;11543;43.144;24.684;2023-05-22T11:18:33;98561.03;;;28.94;42.63
22753;BME280;11543;43.144;24.684;2023-05-22T11:20:58;98554.91;;;29.07;43.05
22753;BME280;11543;43.144;24.684;2023-05-22T11:23:25;98565.91;;;29.17;42.08
22753;BME280;11543;43.144;24.684;2023-05-22T11:25:50;98558.91;;;29.40;41.90
22753;BME280;11543;43.144;24.684;2023-05-22T11:28:16;98550.31;;;29.42;40.91
22753;BME280;11543;43.144;24.684;2023-05-22T11:30:42;98547.84;;;29.40;41.16
22753;BME280;11543;43.144;24.684;2023-05-22T11:33:08;98553.94;;;29.37;40.70
22753;BME280;11543;43.144;24.684;2023-05-22T11:35:34;98529.72;;;29.19;40.32
22753;BME280;11543;43.144;24.684;2023-05-22T11:38:03;98533.31;;;29.14;41.23
22753;BME280;11543;43.144;24.684;2023-05-22T11:40:30;98537.47;;;29.12;40.65
22753;BME280;11543;43.144;24.684;2023-05-22T11:42:55;98547.38;;;29.23;40.43
22753;BME280;11543;43.144;24.684;2023-05-22T11:45:21;98531.09;;;29.16;40.24
22753;BME280;11543;43.144;24.684;2023-05-22T11:47:47;98522.75;;;29.27;40.71
22753;BME280;11543;43.144;24.684;2023-05-22T11:50:13;98520.81;;;29.27;39.90
22753;BME280;11543;43.144;24.684;2023-05-22T11:52:40;98523.56;;;29.32;39.74
22753;BME280;11543;43.144;24.684;2023-05-22T11:55:07;98519.94;;;29.37;39.42
22753;BME280;11543;43.144;24.684;2023-05-22T11:57:33;98516.59;;;29.45;38.92
22753;BME280;11543;43.144;24.684;2023-05-22T12:00:00;98527.66;;;29.50;38.34
22753;BME280;11543;43.144;24.684;2023-05-22T12:02:26;98520.19;;;29.40;38.96
22753;BME280;11543;43.144;24.684;2023-05-22T12:04:56;98510.53;;;29.38;39.16
22753;BME280;11543;43.144;24.684;2023-05-22T12:07:22;98507.22;;;29.51;38.76
22753;BME280;11543;43.144;24.684;2023-05-22T12:09:49;98498.25;;;29.64;39.53
22753;BME280;11543;43.144;24.684;2023-05-22T12:12:15;98486.63;;;29.67;39.37
22753;BME280;11543;43.144;24.684;2023-05-22T12:14:43;98506.94;;;29.87;38.36
22753;BME280;11543;43.144;24.684;2023-05-22T12:17:11;98499.44;;;29.92;38.49
22753;BME280;11543;43.144;24.684;2023-05-22T12:19:41;98490.84;;;29.94;37.14
22753;BME280;11543;43.144;24.684;2023-05-22T12:22:07;98494.22;;;29.86;38.22
22753;BME280;11543;43.144;24.684;2023-05-22T12:24:41;98501.41;;;29.87;37.70
22753;BME280;11543;43.144;24.684;2023-05-22T12:27:11;98495.91;;;29.82;37.69
22753;BME280;11543;43.144;24.684;2023-05-22T12:29:37;98488.75;;;29.80;38.21
22753;BME280;11543;43.144;24.684;2023-05-22T12:32:06;98476.31;;;29.78;37.72
22753;BME280;11543;43.144;24.684;2023-05-22T12:34:41;98462.38;;;29.59;37.03
22753;BME280;11543;43.144;24.684;2023-05-22T12:37:21;98473.50;;;29.39;37.58
22753;BME280;11543;43.144;24.684;2023-05-22T12:39:57;98473.56;;;29.29;37.32
22753;BME280;11543;43.144;24.684;2023-05-22T12:42:27;98477.00;;;29.10;38.36
22753;BME280;11543;43.144;24.684;2023-05-22T12:44:54;98471.53;;;29.00;39.46
22753;BME280;11543;43.144;24.684;2023-05-22T12:47:21;98472.13;;;28.87;39.95
22753;BME280;11543;43.144;24.684;2023-05-22T12:49:47;98468.28;;;28.88;39.39
22753;BME280;11543;43.144;24.684;2023-05-22T12:52:13;98463.84;;;28.92;39.41
22753;BME280;11543;43.144;24.684;2023-05-22T12:54:38;98461.06;;;28.92;38.58
22753;BME280;11543;43.144;24.684;2023-05-22T12:57:04;98461.09;;;28.87;38.40
22753;BME280;11543;43.144;24.684;2023-05-22T12:59:29;98455.84;;;28.80;38.42
22753;BME280;11543;43.144;24.684;2023-05-22T13:01:56;98456.38;;;28.93;38.83
22753;BME280;11543;43.144;24.684;2023-05-22T13:04:26;98441.72;;;28.97;38.96
22753;BME280;11543;43.144;24.684;2023-05-22T13:06:52;98462.50;;;29.29;39.16
22753;BME280;11543;43.144;24.684;2023-05-22T13:09:18;98448.09;;;29.37;38.73